Time;durP1;ratioP1;P1;durP2;ratioP2;P2;SDS_P1;SDS_P2;PMS_P1;PMS_P2;Temp;Humidity;BMP_temperature;BMP_pressure;BME280_temperature;BME280_humidity;BME280_pressure;Samples;Min_cycle;Max_cycle;Signal;HPM_P1;HPM_P2
2021/09/19 00:02:17;;;;;;;24.48;21.85;;;16.20;81.00;;;;;;5006843;28;20022;-73
2021/09/19 00:04:42;;;;;;;26.75;23.92;;;16.10;81.20;;;;;;5006958;28;20042;-73
2021/09/19 00:07:08;;;;;;;26.55;23.75;;;16.10;81.30;;;;;;5001735;28;20052;-72
2021/09/19 00:09:34;;;;;;;26.80;23.92;;;16.10;81.50;;;;;;4994563;28;20552;-75
2021/09/19 00:11:59;;;;;;;29.63;26.00;;;16.10;81.60;;;;;;4985145;28;20069;-73
2021/09/19 00:14:25;;;;;;;29.77;26.48;;;16.10;81.70;;;;;;4990177;28;20121;-73
2021/09/19 00:16:51;;;;;;;30.23;26.55;;;16.00;81.90;;;;;;4988004;28;20077;-72
2021/09/19 00:19:17;;;;;;;29.35;26.15;;;16.00;82.10;;;;;;4986093;28;20077;-73
2021/09/19 00:21:43;;;;;;;28.73;25.58;;;16.00;82.10;;;;;;4981074;28;20038;-74
2021/09/19 00:24:09;;;;;;;31.65;27.42;;;16.00;82.20;;;;;;4988626;28;20031;-73
2021/09/19 00:26:35;;;;;;;32.72;29.33;;;16.00;82.30;;;;;;4988951;28;20078;-73
2021/09/19 00:29:00;;;;;;;33.28;28.30;;;15.90;82.40;;;;;;4983253;28;20046;-73
2021/09/19 00:31:26;;;;;;;31.00;27.73;;;15.90;82.60;;;;;;4991100;28;20038;-73
2021/09/19 00:33:52;;;;;;;34.28;29.60;;;15.90;82.60;;;;;;4999834;28;20092;-73
2021/09/19 00:36:17;;;;;;;31.98;28.58;;;15.80;82.80;;;;;;4999013;28;20033;-73
2021/09/19 00:38:44;;;;;;;33.40;29.80;;;15.80;83.00;;;;;;4987709;28;20046;-73
2021/09/19 00:41:10;;;;;;;32.20;28.80;;;15.80;83.00;;;;;;4995791;28;20129;-73
2021/09/19 00:43:36;;;;;;;33.83;29.95;;;15.80;83.00;;;;;;4988940;28;20113;-73
2021/09/19 00:46:02;;;;;;;34.83;31.15;;;15.80;83.10;;;;;;4978774;28;20125;-74
2021/09/19 00:48:27;;;;;;;33.72;30.00;;;15.80;83.10;;;;;;4989650;28;20074;-73
2021/09/19 00:50:53;;;;;;;33.33;29.55;;;15.70;83.20;;;;;;4985997;28;20048;-73
2021/09/19 00:53:20;;;;;;;35.13;31.08;;;15.70;83.20;;;;;;4985857;28;20030;-73
2021/09/19 00:55:49;;;;;;;35.70;31.75;;;15.70;83.20;;;;;;4985314;28;20027;-72
2021/09/19 00:58:17;;;;;;;35.47;31.77;;;15.70;83.30;;;;;;4987461;28;20038;-74
2021/09/19 01:00:48;;;;;;;34.10;30.50;;;15.70;83.30;;;;;;4983302;28;20034;-73
2021/09/19 01:03:16;;;;;;;36.22;31.70;;;15.70;83.40;;;;;;4988997;28;20050;-72
2021/09/19 01:05:43;;;;;;;36.97;32.42;;;15.60;83.40;;;;;;4981524;28;20034;-73
2021/09/19 01:08:10;;;;;;;37.45;33.03;;;15.60;83.60;;;;;;4985906;28;20138;-73
2021/09/19 01:10:36;;;;;;;37.85;33.08;;;15.60;83.90;;;;;;4992533;28;20041;-74
2021/09/19 01:13:03;;;;;;;37.20;33.28;;;15.50;84.10;;;;;;5008785;28;20099;-73
2021/09/19 01:15:29;;;;;;;36.80;32.88;;;15.60;84.10;;;;;;5003850;28;20044;-73
2021/09/19 01:17:58;;;;;;;35.78;31.90;;;15.60;84.10;;;;;;4990367;28;20498;-73
2021/09/19 01:20:24;;;;;;;35.38;31.65;;;15.50;84.10;;;;;;4979115;28;20035;-72
2021/09/19 01:23:10;;;;;;;38.75;32.63;;;15.50;84.30;;;;;;4983777;28;20089;-73
2021/09/19 01:25:37;;;;;;;37.42;33.38;;;15.50;84.20;;;;;;4988498;28;20046;-72
2021/09/19 01:28:04;;;;;;;37.42;33.55;;;15.50;84.10;;;;;;4986969;28;20126;-73
2021/09/19 01:30:31;;;;;;;39.45;35.35;;;15.50;84.10;;;;;;4981682;28;20031;-73
2021/09/19 01:32:56;;;;;;;38.17;34.08;;;15.50;84.10;;;;;;4981579;28;20040;-73
2021/09/19 01:35:22;;;;;;;39.65;35.53;;;15.50;84.20;;;;;;4980810;28;20050;-73
2021/09/19 01:37:48;;;;;;;42.00;35.65;;;15.50;84.30;;;;;;4981324;28;20050;-73
2021/09/19 01:40:14;;;;;;;38.88;34.60;;;15.40;84.40;;;;;;4979587;28;20031;-73
2021/09/19 01:42:41;;;;;;;40.42;36.35;;;15.40;84.40;;;;;;4987172;28;20049;-74
2021/09/19 01:45:07;;;;;;;40.13;35.92;;;15.40;84.50;;;;;;4981672;28;20097;-73
2021/09/19 01:47:33;;;;;;;40.38;36.03;;;15.30;84.60;;;;;;4988862;28;20034;-74
2021/09/19 01:49:59;;;;;;;41.58;36.17;;;15.30;84.80;;;;;;5001125;28;20458;-72
2021/09/19 01:52:25;;;;;;;41.00;36.60;;;15.30;84.80;;;;;;5007999;28;20030;-73
2021/09/19 01:54:51;;;;;;;40.22;36.00;;;15.30;84.80;;;;;;5001801;28;20120;-73
2021/09/19 01:57:22;;;;;;;39.70;35.40;;;15.20;84.90;;;;;;4998270;28;20064;-73
2021/09/19 01:59:49;;;;;;;40.95;36.53;;;15.20;85.00;;;;;;5006851;28;20034;-73
2021/09/19 02:02:16;;;;;;;42.83;37.80;;;15.20;85.10;;;;;;5004106;28;20084;-72
2021/09/19 02:04:42;;;;;;;42.72;38.17;;;15.20;85.10;;;;;;5010872;28;20073;-73
2021/09/19 02:07:07;;;;;;;43.72;39.15;;;15.10;85.10;;;;;;5013777;28;20084;-73
2021/09/19 02:09:34;;;;;;;44.67;40.00;;;15.10;85.40;;;;;;5011506;28;20052;-72
2021/09/19 02:12:00;;;;;;;41.88;37.28;;;15.00;85.70;;;;;;5006152;28;20473;-72
2021/09/19 02:14:25;;;;;;;43.22;38.53;;;15.00;85.90;;;;;;5006127;28;20034;-73
2021/09/19 02:16:51;;;;;;;45.40;40.58;;;15.00;86.10;;;;;;4999941;28;20496;-73
2021/09/19 02:19:18;;;;;;;46.38;39.70;;;14.90;86.20;;;;;;5004803;28;20042;-70
2021/09/19 02:21:45;;;;;;;43.58;38.78;;;14.90;86.60;;;;;;5010892;28;20056;-72
2021/09/19 02:24:10;;;;;;;44.25;39.30;;;14.80;86.70;;;;;;5007139;28;20052;-71
2021/09/19 02:26:36;;;;;;;47.22;40.38;;;14.80;86.80;;;;;;5004146;28;20045;-71
2021/09/19 02:29:02;;;;;;;43.83;39.03;;;14.80;86.70;;;;;;5001368;28;20119;-71
2021/09/19 02:31:28;;;;;;;42.10;37.53;;;14.80;86.80;;;;;;5002381;28;20177;-72
2021/09/19 02:33:54;;;;;;;43.78;38.97;;;14.80;86.80;;;;;;5000872;28;20029;-71
2021/09/19 02:36:19;;;;;;;41.40;37.00;;;14.80;86.60;;;;;;5007664;28;20093;-72
2021/09/19 02:38:45;;;;;;;44.08;38.75;;;14.80;86.60;;;;;;5000121;28;20046;-75
2021/09/19 02:41:10;;;;;;;44.50;39.72;;;14.80;86.50;;;;;;5005944;28;20056;-72
2021/09/19 02:43:36;;;;;;;41.58;37.35;;;14.80;86.50;;;;;;5006088;28;20036;-72
2021/09/19 02:46:02;;;;;;;46.00;40.20;;;14.80;86.40;;;;;;5001860;28;20034;-73
2021/09/19 02:48:27;;;;;;;42.13;37.70;;;14.80;86.40;;;;;;5002517;28;20042;-72
2021/09/19 02:50:53;;;;;;;44.45;39.67;;;14.70;86.40;;;;;;4998878;28;20039;-71
2021/09/19 02:53:19;;;;;;;41.67;37.17;;;14.70;86.30;;;;;;5008248;28;20108;-71
2021/09/19 02:55:45;;;;;;;43.45;38.85;;;14.70;86.40;;;;;;5001181;28;20038;-72
2021/09/19 02:58:10;;;;;;;41.92;37.53;;;14.70;86.40;;;;;;5006037;28;20034;-72
2021/09/19 03:00:36;;;;;;;42.08;37.65;;;14.70;86.40;;;;;;4999377;28;20394;-73
2021/09/19 03:03:02;;;;;;;44.03;39.22;;;14.60;86.30;;;;;;5001855;28;20034;-72
2021/09/19 03:05:27;;;;;;;43.78;38.97;;;14.60;86.40;;;;;;5006040;28;20444;-71
2021/09/19 03:07:55;;;;;;;43.88;38.92;;;14.60;86.50;;;;;;4999179;28;20042;-72
2021/09/19 03:10:21;;;;;;;44.10;38.95;;;14.60;86.60;;;;;;5014000;28;20030;-72
2021/09/19 03:12:46;;;;;;;43.05;38.50;;;14.60;86.50;;;;;;5006773;28;20466;-72
2021/09/19 03:15:13;;;;;;;43.33;38.65;;;14.60;86.50;;;;;;5007583;28;20432;-72
2021/09/19 03:17:39;;;;;;;43.45;38.75;;;14.60;86.40;;;;;;5006584;28;20038;-72
2021/09/19 03:20:07;;;;;;;45.58;40.00;;;14.60;86.40;;;;;;5004073;28;20049;-71
2021/09/19 03:22:33;;;;;;;44.60;39.15;;;14.60;86.40;;;;;;5010422;28;20509;-72
2021/09/19 03:24:59;;;;;;;43.55;38.88;;;14.60;86.40;;;;;;5001140;28;20077;-72
2021/09/19 03:27:25;;;;;;;42.10;37.60;;;14.60;86.50;;;;;;5000522;28;20382;-72
2021/09/19 03:29:50;;;;;;;42.50;37.88;;;14.50;86.40;;;;;;4982459;28;20038;-72
2021/09/19 03:32:16;;;;;;;44.33;39.58;;;14.50;86.60;;;;;;4983824;28;20077;-72
2021/09/19 03:34:42;;;;;;;43.95;39.30;;;14.50;86.70;;;;;;4990926;28;20034;-72
2021/09/19 03:37:08;;;;;;;44.72;39.60;;;14.40;86.70;;;;;;4982893;28;20051;-72
2021/09/19 03:39:33;;;;;;;46.05;40.35;;;14.40;86.80;;;;;;4983153;28;20046;-72
2021/09/19 03:41:59;;;;;;;46.90;41.67;;;14.30;87.00;;;;;;4992093;28;20027;-72
2021/09/19 03:44:25;;;;;;;43.95;39.20;;;14.30;87.30;;;;;;4992077;28;20042;-73
2021/09/19 03:46:50;;;;;;;43.97;39.17;;;14.30;87.30;;;;;;4978551;28;20045;-72
2021/09/19 03:49:16;;;;;;;45.35;39.85;;;14.20;87.60;;;;;;4983400;28;20047;-74
2021/09/19 03:51:41;;;;;;;46.25;40.70;;;14.20;87.60;;;;;;4987959;28;20038;-71
2021/09/19 03:54:07;;;;;;;43.97;39.05;;;14.10;87.60;;;;;;4990992;28;20146;-72
2021/09/19 03:56:33;;;;;;;45.00;40.13;;;14.10;87.70;;;;;;4980805;28;20529;-72
2021/09/19 03:58:58;;;;;;;43.85;39.13;;;14.10;87.90;;;;;;4989479;28;20050;-73
2021/09/19 04:01:24;;;;;;;44.20;39.53;;;14.10;87.80;;;;;;4995708;28;20530;-72
2021/09/19 04:03:50;;;;;;;44.63;39.92;;;14.10;87.90;;;;;;4984867;28;20038;-72
2021/09/19 04:06:15;;;;;;;45.03;40.30;;;14.10;87.80;;;;;;4985224;28;20390;-72
2021/09/19 04:08:41;;;;;;;44.65;39.78;;;14.10;87.90;;;;;;4990050;28;20038;-72
2021/09/19 04:11:07;;;;;;;42.63;38.10;;;14.10;87.90;;;;;;4989070;28;20041;-73
2021/09/19 04:13:32;;;;;;;44.70;40.00;;;14.00;87.90;;;;;;4986981;28;20052;-72
2021/09/19 04:16:00;;;;;;;46.15;40.38;;;14.10;87.80;;;;;;4981965;28;20444;-72
2021/09/19 04:18:26;;;;;;;46.30;39.88;;;14.00;87.90;;;;;;4986290;28;20035;-75
2021/09/19 04:20:51;;;;;;;43.25;38.28;;;14.00;87.80;;;;;;4986256;28;20385;-73
2021/09/19 04:23:17;;;;;;;42.72;38.13;;;14.00;87.90;;;;;;4988117;28;20030;-72
2021/09/19 04:25:43;;;;;;;43.80;39.10;;;14.00;87.80;;;;;;4989031;28;20142;-72
2021/09/19 04:28:09;;;;;;;45.45;40.65;;;14.00;87.80;;;;;;4988947;28;20449;-72
2021/09/19 04:30:34;;;;;;;43.22;38.55;;;13.90;87.70;;;;;;4986869;28;20073;-72
2021/09/19 04:33:00;;;;;;;45.20;40.30;;;14.00;87.70;;;;;;4987242;28;20394;-72
2021/09/19 04:35:26;;;;;;;44.88;39.22;;;13.90;87.70;;;;;;4983271;28;20387;-72
2021/09/19 04:37:51;;;;;;;45.38;40.63;;;13.90;87.70;;;;;;4982370;28;20447;-72
2021/09/19 04:40:17;;;;;;;43.17;38.45;;;13.90;87.90;;;;;;4986122;28;20031;-73
2021/09/19 04:42:42;;;;;;;45.95;40.95;;;13.80;87.80;;;;;;4984770;28;20521;-72
2021/09/19 04:45:09;;;;;;;46.05;41.05;;;13.80;87.90;;;;;;4985482;28;20042;-73
2021/09/19 04:47:34;;;;;;;46.72;41.70;;;13.80;88.10;;;;;;4987265;28;20076;-72
2021/09/19 04:50:00;;;;;;;43.85;39.05;;;13.70;88.20;;;;;;4987627;28;20046;-72
2021/09/19 04:52:26;;;;;;;45.83;40.28;;;13.70;88.30;;;;;;4986899;28;20125;-72
2021/09/19 04:54:52;;;;;;;45.60;39.55;;;13.70;88.40;;;;;;4987180;28;20425;-73
2021/09/19 04:57:18;;;;;;;45.75;40.85;;;13.70;88.50;;;;;;4986555;28;20034;-72
2021/09/19 04:59:43;;;;;;;47.08;41.78;;;13.70;88.60;;;;;;4985971;28;20437;-73
2021/09/19 05:02:09;;;;;;;50.67;42.60;;;13.60;88.60;;;;;;4989450;28;20437;-72
2021/09/19 05:04:35;;;;;;;46.67;41.08;;;13.70;88.60;;;;;;4985499;28;20035;-74
2021/09/19 05:07:00;;;;;;;45.58;40.78;;;13.60;88.70;;;;;;4978936;28;20033;-72
2021/09/19 05:09:26;;;;;;;46.58;41.47;;;13.60;88.70;;;;;;4985180;28;20065;-72
2021/09/19 05:11:52;;;;;;;44.90;40.10;;;13.60;88.70;;;;;;4985768;28;20374;-73
2021/09/19 05:14:17;;;;;;;46.03;41.08;;;13.60;88.80;;;;;;4985162;28;20041;-72
2021/09/19 05:16:43;;;;;;;46.38;40.42;;;13.60;88.80;;;;;;4980843;28;20070;-72
2021/09/19 05:19:09;;;;;;;44.83;40.03;;;13.60;88.80;;;;;;4980951;28;20039;-73
2021/09/19 05:21:34;;;;;;;49.17;41.22;;;13.60;88.80;;;;;;4984227;28;20462;-72
2021/09/19 05:24:01;;;;;;;45.95;41.03;;;13.60;88.70;;;;;;4987852;28;20057;-73
2021/09/19 05:26:27;;;;;;;46.17;41.20;;;13.60;88.60;;;;;;4988557;28;20100;-71
2021/09/19 05:28:53;;;;;;;49.97;42.10;;;13.60;88.60;;;;;;4979236;28;20512;-74
2021/09/19 05:31:19;;;;;;;46.95;42.03;;;13.60;88.60;;;;;;4981539;28;20039;-72
2021/09/19 05:33:46;;;;;;;46.53;40.70;;;13.60;88.50;;;;;;4981988;28;20035;-72
2021/09/19 05:36:13;;;;;;;49.92;43.40;;;13.60;88.50;;;;;;4980774;28;20360;-73
2021/09/19 05:38:39;;;;;;;45.47;40.47;;;13.60;88.60;;;;;;4986323;28;20117;-72
2021/09/19 05:41:05;;;;;;;48.45;40.60;;;13.60;88.60;;;;;;4985222;28;20664;-72
2021/09/19 05:43:30;;;;;;;47.25;41.35;;;13.60;88.60;;;;;;4982888;28;20502;-72
2021/09/19 05:45:56;;;;;;;45.85;40.63;;;13.60;88.60;;;;;;4981932;28;20501;-72
2021/09/19 05:48:22;;;;;;;43.80;39.03;;;13.60;88.70;;;;;;4983430;28;20042;-72
2021/09/19 05:50:47;;;;;;;43.47;38.67;;;13.60;88.60;;;;;;4987916;28;20042;-72
2021/09/19 05:53:13;;;;;;;48.30;40.78;;;13.60;88.60;;;;;;4986868;28;20371;-72
2021/09/19 05:55:39;;;;;;;47.05;41.97;;;13.70;88.50;;;;;;4986901;28;20161;-73
2021/09/19 05:58:05;;;;;;;44.38;39.60;;;13.70;88.20;;;;;;4986396;28;20236;-72
2021/09/19 06:00:30;;;;;;;46.95;42.05;;;13.70;88.20;;;;;;4986086;28;20057;-72
2021/09/19 06:02:56;;;;;;;48.45;43.22;;;13.70;88.30;;;;;;4984891;28;20027;-72
2021/09/19 06:05:22;;;;;;;49.33;43.58;;;13.60;88.50;;;;;;4982952;28;20066;-74
2021/09/19 06:07:47;;;;;;;48.67;42.13;;;13.60;88.80;;;;;;4986776;28;20393;-70
2021/09/19 06:10:13;;;;;;;48.92;43.63;;;13.60;88.80;;;;;;4987799;28;20109;-70
2021/09/19 06:12:40;;;;;;;52.00;45.08;;;13.70;88.80;;;;;;4977756;28;20046;-70
2021/09/19 06:15:07;;;;;;;49.63;43.17;;;13.60;88.90;;;;;;4984279;28;20070;-70
2021/09/19 06:17:33;;;;;;;51.67;45.75;;;13.60;89.10;;;;;;4983868;28;20030;-69
2021/09/19 06:19:59;;;;;;;53.10;45.85;;;13.60;89.20;;;;;;4984956;28;20467;-69
2021/09/19 06:22:24;;;;;;;50.33;44.90;;;13.60;89.40;;;;;;4987358;28;20045;-70
2021/09/19 06:24:50;;;;;;;46.88;41.70;;;13.70;89.40;;;;;;4981020;28;20050;-73
2021/09/19 06:27:16;;;;;;;47.17;42.08;;;13.80;89.20;;;;;;4983731;28;20038;-69
2021/09/19 06:29:42;;;;;;;45.78;40.80;;;13.90;89.30;;;;;;4984159;28;20043;-69
2021/09/19 06:32:09;;;;;;;47.38;41.75;;;14.10;88.80;;;;;;4981955;28;20031;-69
2021/09/19 06:34:39;;;;;;;47.78;42.53;;;14.20;87.80;;;;;;4983129;28;20394;-69
2021/09/19 06:37:05;;;;;;;46.50;40.60;;;14.30;87.40;;;;;;4979447;28;20113;-69
2021/09/19 06:39:31;;;;;;;41.03;36.42;;;14.60;86.90;;;;;;4984155;28;20158;-69
2021/09/19 06:41:57;;;;;;;42.88;36.78;;;14.80;86.00;;;;;;4983966;28;20445;-74
2021/09/19 06:44:24;;;;;;;43.58;37.55;;;15.00;85.40;;;;;;4981017;28;20034;-69
2021/09/19 06:46:52;;;;;;;43.35;37.60;;;14.90;85.20;;;;;;4982181;28;20034;-70
2021/09/19 06:49:17;;;;;;;42.78;37.00;;;14.80;85.30;;;;;;4986941;28;20049;-69
2021/09/19 06:51:43;;;;;;;41.65;37.15;;;14.70;85.90;;;;;;4990521;28;20035;-69
2021/09/19 06:54:09;;;;;;;43.92;39.25;;;14.80;85.80;;;;;;4984044;28;20395;-69
2021/09/19 06:56:34;;;;;;;42.13;37.08;;;14.70;85.90;;;;;;4976552;28;20038;-70
2021/09/19 06:59:00;;;;;;;41.92;37.10;;;14.80;85.90;;;;;;4981652;28;20027;-69
2021/09/19 07:01:26;;;;;;;42.53;38.05;;;14.80;86.30;;;;;;4975354;28;20085;-70
2021/09/19 07:03:51;;;;;;;39.97;35.58;;;14.90;86.20;;;;;;4974303;28;20042;-71
2021/09/19 07:06:17;;;;;;;41.53;37.20;;;14.90;86.00;;;;;;4978470;28;20465;-69
2021/09/19 07:08:45;;;;;;;41.13;36.95;;;15.00;85.50;;;;;;4979659;28;20517;-69
2021/09/19 07:11:11;;;;;;;42.70;35.97;;;14.90;85.70;;;;;;4973560;28;20601;-73
2021/09/19 07:13:37;;;;;;;43.13;38.47;;;15.10;85.40;;;;;;4977745;28;20083;-70
2021/09/19 07:16:03;;;;;;;38.97;34.85;;;15.20;85.50;;;;;;4968235;28;20735;-70
2021/09/19 07:18:29;;;;;;;39.15;34.85;;;15.40;85.30;;;;;;4980327;28;20045;-70
2021/09/19 07:20:54;;;;;;;39.50;35.25;;;15.40;84.80;;;;;;4978078;28;20414;-69
2021/09/19 07:23:21;;;;;;;44.25;36.25;;;15.50;84.60;;;;;;4978341;28;20105;-70
2021/09/19 07:25:47;;;;;;;40.88;36.50;;;15.50;84.20;;;;;;4980401;28;20153;-70
2021/09/19 07:28:13;;;;;;;40.95;36.67;;;15.50;83.40;;;;;;4973281;28;20147;-71
2021/09/19 07:30:40;;;;;;;42.17;36.92;;;15.50;84.00;;;;;;4993253;28;20042;-69
2021/09/19 07:33:06;;;;;;;40.67;36.03;;;15.60;84.30;;;;;;4984301;28;20034;-69
2021/09/19 07:35:33;;;;;;;39.72;35.17;;;15.60;84.20;;;;;;4984712;28;20482;-69
2021/09/19 07:37:59;;;;;;;40.15;35.75;;;15.90;83.60;;;;;;4980828;28;20035;-70
2021/09/19 07:40:25;;;;;;;38.17;34.20;;;16.00;83.30;;;;;;4980416;28;20088;-69
2021/09/19 07:42:51;;;;;;;39.00;35.05;;;16.10;81.80;;;;;;4980004;28;20134;-69
2021/09/19 07:45:18;;;;;;;37.17;33.38;;;15.90;82.20;;;;;;4976633;28;20035;-69
2021/09/19 07:47:44;;;;;;;37.47;33.55;;;16.10;83.20;;;;;;4981454;28;20134;-71
2021/09/19 07:50:11;;;;;;;37.65;33.72;;;16.10;82.50;;;;;;4980301;28;20067;-70
2021/09/19 07:52:38;;;;;;;42.60;35.42;;;16.20;81.90;;;;;;4982573;28;20117;-70
2021/09/19 07:55:04;;;;;;;38.55;34.35;;;16.20;81.30;;;;;;4983683;28;20623;-73
2021/09/19 07:57:29;;;;;;;37.97;33.92;;;16.40;82.00;;;;;;4985949;28;20547;-70
2021/09/19 07:59:56;;;;;;;39.67;35.53;;;16.50;81.80;;;;;;4990564;28;20120;-69
2021/09/19 08:02:22;;;;;;;37.28;33.22;;;16.50;81.70;;;;;;4987659;28;20088;-69
2021/09/19 08:04:48;;;;;;;37.53;33.53;;;16.70;80.60;;;;;;4983788;28;20125;-69
2021/09/19 08:07:14;;;;;;;37.03;33.13;;;16.80;80.10;;;;;;4987269;28;20045;-69
2021/09/19 08:09:41;;;;;;;38.75;34.30;;;17.00;79.60;;;;;;4985288;28;20125;-69
2021/09/19 08:12:07;;;;;;;38.00;33.97;;;17.00;78.90;;;;;;4981984;28;20022;-70
2021/09/19 08:14:33;;;;;;;37.13;33.17;;;17.10;79.40;;;;;;4980407;28;20126;-69
2021/09/19 08:16:59;;;;;;;35.75;31.85;;;17.10;79.40;;;;;;4984930;28;20498;-69
2021/09/19 08:19:26;;;;;;;35.70;31.95;;;17.30;79.40;;;;;;4986352;28;20123;-69
2021/09/19 08:21:52;;;;;;;36.90;33.10;;;17.50;78.70;;;;;;4989218;28;20038;-70
2021/09/19 08:24:19;;;;;;;35.85;32.00;;;17.70;78.20;;;;;;4987788;28;20442;-71
2021/09/19 08:26:45;;;;;;;37.15;33.35;;;18.00;77.50;;;;;;4989467;28;20034;-71
2021/09/19 08:29:11;;;;;;;36.03;32.33;;;18.10;76.60;;;;;;4998931;28;20042;-70
2021/09/19 08:31:38;;;;;;;34.90;31.13;;;18.10;76.70;;;;;;5001688;28;20034;-70
2021/09/19 08:34:05;;;;;;;34.90;31.38;;;18.20;76.60;;;;;;5007590;28;20037;-70
2021/09/19 08:36:30;;;;;;;36.88;33.08;;;18.40;76.10;;;;;;5007473;28;20220;-70
2021/09/19 08:38:56;;;;;;;37.25;32.40;;;18.40;75.40;;;;;;5008451;28;20128;-70
2021/09/19 08:41:22;;;;;;;35.42;31.63;;;18.50;75.40;;;;;;5008053;28;20095;-70
2021/09/19 08:43:49;;;;;;;36.20;32.30;;;18.60;74.80;;;;;;5007245;28;20076;-70
2021/09/19 08:46:16;;;;;;;36.85;32.20;;;18.60;74.30;;;;;;5001174;28;20034;-70
2021/09/19 08:48:42;;;;;;;36.67;32.88;;;18.60;74.80;;;;;;5006736;28;20075;-72
2021/09/19 08:51:08;;;;;;;35.13;31.63;;;18.90;74.90;;;;;;5004828;28;20121;-70
2021/09/19 08:53:34;;;;;;;36.17;32.40;;;19.20;73.30;;;;;;5008622;28;20430;-70
2021/09/19 08:56:00;;;;;;;35.97;32.33;;;18.90;74.30;;;;;;5003085;28;20034;-74
2021/09/19 08:58:26;;;;;;;31.67;28.35;;;18.80;75.20;;;;;;5006621;28;20490;-70
2021/09/19 09:00:52;;;;;;;35.10;31.50;;;19.10;75.10;;;;;;5000185;28;20030;-69
2021/09/19 09:03:22;;;;;;;34.15;30.48;;;19.20;74.40;;;;;;5004941;28;20038;-71
2021/09/19 09:05:55;;;;;;;34.83;31.15;;;19.30;73.40;;;;;;5014367;28;20081;-68
2021/09/19 09:08:21;;;;;;;33.05;29.63;;;19.30;73.20;;;;;;4996851;28;20096;-70
2021/09/19 09:10:50;;;;;;;33.28;29.92;;;19.60;73.20;;;;;;4990517;28;20061;-69
2021/09/19 09:13:21;;;;;;;38.85;29.02;;;19.70;71.60;;;;;;4988786;28;20043;-68
2021/09/19 09:15:48;;;;;;;34.67;31.00;;;19.90;71.90;;;;;;4982245;28;21506;-69
2021/09/19 09:18:38;;;;;;;34.67;31.15;;;19.90;71.20;;;;;;4987686;28;20039;-73
2021/09/19 09:21:08;;;;;;;33.00;29.70;;;20.10;71.10;;;;;;4981684;28;20121;-69
2021/09/19 09:23:45;;;;;;;35.25;31.23;;;20.20;70.90;;;;;;4989241;28;20038;-69
2021/09/19 09:26:16;;;;;;;35.35;31.85;;;20.30;70.40;;;;;;4981693;28;20123;-68
2021/09/19 09:29:07;;;;;;;36.50;32.65;;;20.00;69.60;;;;;;4985605;28;20418;-69
2021/09/19 09:31:53;;;;;;;35.90;32.25;;;19.60;71.30;;;;;;4983421;28;20509;-73
2021/09/19 09:34:20;;;;;;;36.20;32.53;;;19.50;72.40;;;;;;4988235;28;20122;-68
2021/09/19 09:36:54;;;;;;;35.30;31.58;;;19.70;71.50;;;;;;4989196;28;20057;-69
2021/09/19 09:39:33;;;;;;;33.55;29.90;;;20.00;72.10;;;;;;4984874;28;20117;-68
2021/09/19 09:42:04;;;;;;;33.92;30.42;;;20.40;70.40;;;;;;4984336;28;20038;-68
2021/09/19 09:44:53;;;;;;;35.17;30.65;;;20.80;69.70;;;;;;4981008;28;20038;-69
2021/09/19 09:47:28;;;;;;;32.28;28.92;;;21.10;68.20;;;;;;4980989;28;20035;-68
2021/09/19 09:49:59;;;;;;;30.08;27.10;;;21.40;67.40;;;;;;4976739;28;20411;-70
2021/09/19 09:52:26;;;;;;;32.60;29.05;;;21.80;66.80;;;;;;4979834;28;20030;-70
2021/09/19 09:55:10;;;;;;;32.45;28.50;;;22.00;64.70;;;;;;4987092;28;20053;-73
2021/09/19 09:57:36;;;;;;;32.13;28.83;;;21.60;65.70;;;;;;4985669;28;20026;-74
2021/09/19 10:00:06;;;;;;;31.05;27.80;;;21.90;65.50;;;;;;4979663;28;20061;-71
2021/09/19 10:02:34;;;;;;;29.67;26.67;;;21.90;65.60;;;;;;4980037;28;20117;-71
2021/09/19 10:05:00;;;;;;;29.77;26.67;;;22.00;64.50;;;;;;4986433;28;20030;-69
2021/09/19 10:07:25;;;;;;;30.50;27.35;;;21.90;64.20;;;;;;4987025;28;20116;-69
2021/09/19 10:09:51;;;;;;;28.77;25.85;;;21.70;64.60;;;;;;4978795;28;20436;-75
2021/09/19 10:12:20;;;;;;;30.08;27.05;;;21.80;65.00;;;;;;4986745;28;20331;-68
2021/09/19 10:14:50;;;;;;;30.42;27.33;;;21.90;64.10;;;;;;4982749;28;20041;-73
2021/09/19 10:17:20;;;;;;;29.65;26.45;;;21.80;64.10;;;;;;4979845;28;20034;-69
2021/09/19 10:19:47;;;;;;;28.73;25.80;;;22.10;63.40;;;;;;4979582;28;20129;-68
2021/09/19 10:22:26;;;;;;;29.05;26.05;;;22.10;62.70;;;;;;4985903;28;20034;-68
2021/09/19 10:24:52;;;;;;;28.08;25.20;;;22.00;63.00;;;;;;4982782;28;20500;-67
2021/09/19 10:27:28;;;;;;;27.63;24.88;;;22.00;63.00;;;;;;4983062;28;20039;-68
2021/09/19 10:30:06;;;;;;;27.48;24.67;;;22.10;63.30;;;;;;4984581;28;20035;-68
2021/09/19 10:32:35;;;;;;;26.48;23.85;;;22.20;63.60;;;;;;4979737;28;20474;-70
2021/09/19 10:35:01;;;;;;;28.17;25.17;;;22.40;63.00;;;;;;4976532;28;20035;-69
2021/09/19 10:38:00;;;;;;;27.38;24.58;;;22.40;62.90;;;;;;4983132;28;20057;-68
2021/09/19 10:40:43;;;;;;;30.48;27.20;;;22.50;62.30;;;;;;4979502;28;20062;-71
2021/09/19 10:43:29;;;;;;;27.98;25.08;;;22.30;61.80;;;;;;4980929;28;20062;-68
2021/09/19 10:45:55;;;;;;;27.90;25.00;;;22.10;63.00;;;;;;4980229;28;20046;-72
2021/09/19 10:48:28;;;;;;;27.08;24.17;;;21.90;64.00;;;;;;4976132;28;20409;-69
2021/09/19 10:51:08;;;;;;;26.20;23.42;;;22.00;64.70;;;;;;4982645;28;20030;-70
2021/09/19 10:53:48;;;;;;;26.80;23.92;;;22.00;63.50;;;;;;4980330;28;20042;-68
2021/09/19 10:56:14;;;;;;;27.55;24.70;;;22.10;63.30;;;;;;4980452;28;20479;-67
2021/09/19 10:58:46;;;;;;;24.30;21.10;;;22.00;63.00;;;;;;4981532;28;20070;-70
2021/09/19 11:01:14;;;;;;;26.33;23.67;;;22.20;64.20;;;;;;4978928;28;20073;-68
2021/09/19 11:04:03;;;;;;;25.45;22.80;;;22.60;62.90;;;;;;4976997;28;20583;-73
2021/09/19 11:06:32;;;;;;;23.25;20.80;;;22.60;61.60;;;;;;4980112;28;20047;-69
2021/09/19 11:09:17;;;;;;;26.02;23.27;;;22.80;61.80;;;;;;4979884;28;20058;-70
2021/09/19 11:12:07;;;;;;;27.35;23.23;;;22.90;61.80;;;;;;4983196;28;20656;-69
2021/09/19 11:14:56;;;;;;;25.05;22.35;;;23.10;61.30;;;;;;4983249;28;20056;-68
2021/09/19 11:17:23;;;;;;;24.95;22.42;;;23.10;60.00;;;;;;4983310;28;20041;-68
2021/09/19 11:20:12;;;;;;;25.30;22.70;;;23.10;59.40;;;;;;4985130;28;20064;-69
2021/09/19 11:22:39;;;;;;;24.38;21.77;;;23.10;59.70;;;;;;4982673;28;20054;-68
2021/09/19 11:25:06;;;;;;;23.55;21.05;;;23.10;59.10;;;;;;4977691;28;20054;-68
2021/09/19 11:27:34;;;;;;;23.98;21.00;;;23.10;59.10;;;;;;4984390;28;20469;-68
2021/09/19 11:30:00;;;;;;;23.48;21.08;;;23.30;58.70;;;;;;4983515;28;20035;-70
2021/09/19 11:32:27;;;;;;;23.42;20.88;;;23.50;58.30;;;;;;4983791;28;20038;-68
2021/09/19 11:34:54;;;;;;;22.13;19.85;;;23.60;57.70;;;;;;4988601;28;20032;-67
2021/09/19 11:37:20;;;;;;;22.15;19.83;;;23.60;58.30;;;;;;4989537;28;20034;-72
2021/09/19 11:39:46;;;;;;;20.02;17.98;;;23.70;57.60;;;;;;4984889;28;20053;-68
2021/09/19 11:42:13;;;;;;;23.60;21.23;;;24.00;55.60;;;;;;4982479;28;20034;-67
2021/09/19 11:44:50;;;;;;;20.48;18.40;;;24.00;54.50;;;;;;4988519;28;20038;-67
2021/09/19 11:47:22;;;;;;;20.60;18.30;;;24.00;55.80;;;;;;4986755;28;20030;-71
2021/09/19 11:50:00;;;;;;;23.02;20.73;;;23.80;55.80;;;;;;4986798;28;20061;-68
2021/09/19 11:52:26;;;;;;;22.10;19.73;;;23.60;56.70;;;;;;4983525;28;20035;-68
2021/09/19 11:54:52;;;;;;;21.27;19.17;;;23.70;56.60;;;;;;4972788;28;20036;-68
2021/09/19 11:57:17;;;;;;;23.27;20.77;;;23.60;56.50;;;;;;4983092;28;20110;-69
2021/09/19 11:59:45;;;;;;;23.30;20.90;;;23.60;57.30;;;;;;4984296;28;20055;-68
2021/09/19 12:02:12;;;;;;;21.15;18.95;;;23.60;56.70;;;;;;4977837;28;20037;-68
2021/09/19 12:04:40;;;;;;;20.88;18.67;;;23.50;57.80;;;;;;4987902;28;20070;-68
2021/09/19 12:07:09;;;;;;;22.42;19.45;;;23.50;57.70;;;;;;4984368;28;20121;-68
2021/09/19 12:09:40;;;;;;;22.45;19.60;;;23.60;58.20;;;;;;4984563;28;20138;-67
2021/09/19 12:12:12;;;;;;;19.85;17.75;;;23.70;57.10;;;;;;4988531;28;20128;-67
2021/09/19 12:14:47;;;;;;;18.90;16.95;;;23.80;57.10;;;;;;4987636;28;20049;-68
2021/09/19 12:17:14;;;;;;;21.33;19.13;;;24.00;56.70;;;;;;4983834;28;20034;-67
2021/09/19 12:19:48;;;;;;;20.45;18.45;;;24.00;56.60;;;;;;4984694;28;20031;-69
2021/09/19 12:22:20;;;;;;;20.63;18.52;;;24.00;56.80;;;;;;4980373;28;20038;-69
2021/09/19 12:24:54;;;;;;;22.23;20.00;;;24.00;56.40;;;;;;4981203;28;20053;-70
2021/09/19 12:27:25;;;;;;;20.23;18.15;;;23.90;56.60;;;;;;4976044;28;20049;-70
2021/09/19 12:30:16;;;;;;;19.70;17.73;;;24.00;57.10;;;;;;4988362;28;20046;-70
2021/09/19 12:32:49;;;;;;;20.25;18.15;;;23.90;57.10;;;;;;4986636;28;20035;-69